createdAt,value
2023-05-05T00:03:58.725Z,14.38
2023-05-05T00:09:00.346Z,14.22
2023-05-05T00:14:01.824Z,14.13
2023-05-05T00:19:03.405Z,14.09
2023-05-05T00:24:05.386Z,14.12
2023-05-05T00:29:06.883Z,14.02
2023-05-05T00:34:08.357Z,14.12
2023-05-05T00:39:09.915Z,13.87
2023-05-05T00:44:11.636Z,13.64
2023-05-05T00:49:13.135Z,13.56
2023-05-05T00:54:14.692Z,13.36
2023-05-05T00:59:16.411Z,13.34
2023-05-05T01:04:17.971Z,13.14
2023-05-05T01:10:04.230Z,13.59
2023-05-05T01:15:34.821Z,14.35
2023-05-05T01:21:01.565Z,14.54
2023-05-05T01:26:46.739Z,14.56
2023-05-05T01:31:52.267Z,14.54
2023-05-05T01:37:18.290Z,14.59
2023-05-05T01:42:22.389Z,14.53
2023-05-05T01:47:24.809Z,14.52
2023-05-05T01:52:28.067Z,14.50
2023-05-05T01:57:31.399Z,14.42
2023-05-05T02:02:35.037Z,14.26
2023-05-05T02:07:36.883Z,14.19
2023-05-05T02:12:41.101Z,14.22
2023-05-05T02:17:43.648Z,14.08
2023-05-05T02:22:45.704Z,13.94
2023-05-05T02:27:49.245Z,13.66
2023-05-05T02:32:56.100Z,13.74
2023-05-05T02:38:05.448Z,13.56
2023-05-05T02:43:10.033Z,13.52
2023-05-05T02:48:13.195Z,13.61
2023-05-05T02:53:14.930Z,13.60
2023-05-05T02:58:30.920Z,13.57
2023-05-05T03:03:40.888Z,13.57
2023-05-05T03:09:08.552Z,13.50
2023-05-05T03:14:17.269Z,13.38
2023-05-05T03:19:20.096Z,13.21
2023-05-05T03:24:21.778Z,13.06
2023-05-05T03:29:23.347Z,13.07
2023-05-05T03:34:24.836Z,12.84
2023-05-05T03:39:26.338Z,12.67
2023-05-05T03:44:28.001Z,12.69
2023-05-05T03:49:29.512Z,12.69
2023-05-05T03:54:31.341Z,12.74
2023-05-05T03:59:35.621Z,12.81
2023-05-05T04:04:37.181Z,12.83
2023-05-05T04:09:44.628Z,12.73
2023-05-05T04:14:46.043Z,12.77
2023-05-05T04:19:47.517Z,12.80
2023-05-05T04:24:49.076Z,12.78
2023-05-05T04:29:50.602Z,12.81
2023-05-05T04:34:52.088Z,12.60
2023-05-05T04:39:53.492Z,12.53
2023-05-05T04:44:55.013Z,12.56
2023-05-05T04:49:56.467Z,12.63
2023-05-05T04:54:58.093Z,12.68
2023-05-05T05:00:01.458Z,12.78
2023-05-05T05:05:03.324Z,12.89
2023-05-05T05:10:05.441Z,13.07
2023-05-05T05:15:07.677Z,13.15
2023-05-05T05:20:10.018Z,13.28
2023-05-05T05:25:11.717Z,13.41
2023-05-05T05:30:13.483Z,13.60
2023-05-05T05:35:14.995Z,13.76
2023-05-05T05:40:16.652Z,13.94
2023-05-05T05:45:18.180Z,14.02
2023-05-05T05:50:20.463Z,14.18
2023-05-05T05:55:21.983Z,14.18
2023-05-05T06:00:23.629Z,14.43
2023-05-05T06:05:25.158Z,14.59
2023-05-05T06:10:28.234Z,14.85
2023-05-05T06:15:29.856Z,15.04
2023-05-05T06:20:31.593Z,15.05
2023-05-05T06:25:33.344Z,15.15
2023-05-05T06:30:34.906Z,15.18
2023-05-05T06:35:36.365Z,15.42
2023-05-05T06:40:37.891Z,15.67
2023-05-05T06:45:39.323Z,15.86
2023-05-05T06:50:40.959Z,15.79
2023-05-05T06:55:47.218Z,16.01
2023-05-05T07:00:48.660Z,16.20
2023-05-05T07:05:50.109Z,16.12
2023-05-05T07:10:51.593Z,16.45
2023-05-05T07:15:53.461Z,16.36
2023-05-05T07:20:54.923Z,16.77
2023-05-05T07:25:56.646Z,16.84
2023-05-05T07:30:58.436Z,17.44
2023-05-05T07:36:00.186Z,17.42
2023-05-05T07:41:01.692Z,17.47
2023-05-05T07:46:03.781Z,17.55
2023-05-05T07:51:05.327Z,17.78
2023-05-05T07:56:08.707Z,18.09
2023-05-05T08:01:11.253Z,18.23
2023-05-05T08:06:16.425Z,18.11
2023-05-05T08:11:17.861Z,18.69
2023-05-05T08:16:19.385Z,18.70
2023-05-05T08:21:20.982Z,18.36
2023-05-05T08:26:22.892Z,18.46
2023-05-05T08:31:24.406Z,19.63
2023-05-05T08:36:27.259Z,19.47
2023-05-05T08:41:28.868Z,18.87
2023-05-05T08:46:31.186Z,19.98
2023-05-05T08:51:45.397Z,19.58
2023-05-05T08:56:49.833Z,19.88
2023-05-05T09:01:53.154Z,20.22
2023-05-05T09:06:58.209Z,20.34
2023-05-05T09:12:00.212Z,19.64
2023-05-05T09:17:03.221Z,19.25
2023-05-05T09:22:04.842Z,19.15
2023-05-05T09:27:22.115Z,19.42
2023-05-05T09:32:25.103Z,19.40
2023-05-05T09:37:31.439Z,19.78
2023-05-05T09:42:32.881Z,19.68
2023-05-05T09:47:35.755Z,19.82
2023-05-05T09:52:37.449Z,19.05
2023-05-05T09:57:39.012Z,18.99
2023-05-05T10:02:40.745Z,19.05
2023-05-05T10:07:47.150Z,19.15
2023-05-05T10:12:50.159Z,19.20
2023-05-05T10:18:06.138Z,19.53
2023-05-05T10:23:15.301Z,19.34
2023-05-05T10:28:28.537Z,19.08
2023-05-05T10:33:36.362Z,19.37
2023-05-05T10:38:38.377Z,19.36
2023-05-05T10:43:39.875Z,19.15
2023-05-05T10:48:57.442Z,19.69
2023-05-05T10:54:06.981Z,19.24
2023-05-05T10:59:39.213Z,19.36
2023-05-05T11:04:41.008Z,19.01
2023-05-05T11:10:02.736Z,18.55
2023-05-05T11:15:26.217Z,19.17
2023-05-05T11:20:40.029Z,18.77
2023-05-05T11:25:45.297Z,18.63
2023-05-05T11:30:59.022Z,14.84
2023-05-05T11:36:07.194Z,14.96
2023-05-05T11:41:34.938Z,14.00
2023-05-05T11:46:37.045Z,13.45
2023-05-05T11:51:39.002Z,13.38
2023-05-05T11:56:51.127Z,13.37
2023-05-05T12:01:52.809Z,13.34
2023-05-05T12:06:55.450Z,13.20
2023-05-05T12:11:58.818Z,13.39
2023-05-05T12:17:07.059Z,13.34
2023-05-05T12:22:08.596Z,13.36
2023-05-05T12:27:11.638Z,13.71
2023-05-05T12:32:28.078Z,13.71
2023-05-05T12:37:29.908Z,13.63
2023-05-05T12:42:31.834Z,13.49
2023-05-05T12:47:33.460Z,13.88
2023-05-05T12:52:45.321Z,13.88
2023-05-05T12:58:04.734Z,13.75
2023-05-05T13:03:06.651Z,13.52
2023-05-05T13:08:08.200Z,13.72
2023-05-05T13:13:09.878Z,13.63
2023-05-05T13:18:11.688Z,13.61
2023-05-05T13:23:13.285Z,13.50
2023-05-05T13:28:14.781Z,13.55
2023-05-05T13:33:16.391Z,13.70
2023-05-05T13:38:17.894Z,13.80
2023-05-05T13:43:20.051Z,13.82
2023-05-05T13:48:22.365Z,13.92
2023-05-05T13:53:23.865Z,14.32
2023-05-05T13:58:25.515Z,14.39
2023-05-05T14:03:27.057Z,14.22
2023-05-05T14:08:28.668Z,14.21
2023-05-05T14:13:30.195Z,14.16
2023-05-05T14:18:31.761Z,14.05
2023-05-05T14:23:33.227Z,13.99
2023-05-05T14:28:34.819Z,13.79
2023-05-05T14:33:36.426Z,13.91
2023-05-05T14:38:37.997Z,14.24
2023-05-05T14:43:39.423Z,14.29
2023-05-05T14:48:41.090Z,14.20
2023-05-05T14:53:42.576Z,14.43
2023-05-05T14:58:44.107Z,14.47
2023-05-05T15:03:47.118Z,14.20
2023-05-05T15:08:48.681Z,14.66
2023-05-05T15:13:51.458Z,14.69
2023-05-05T15:18:53.136Z,14.79
2023-05-05T15:23:57.586Z,15.39
2023-05-05T15:28:59.120Z,14.95
2023-05-05T15:34:00.624Z,14.80
2023-05-05T15:39:02.225Z,14.91
2023-05-05T15:44:05.173Z,14.87
2023-05-05T15:49:07.218Z,15.02
2023-05-05T15:54:08.693Z,14.69
2023-05-05T15:59:10.301Z,14.87
2023-05-05T16:04:12.128Z,15.01
2023-05-05T16:09:13.652Z,15.27
2023-05-05T16:14:15.124Z,15.13
2023-05-05T16:19:16.607Z,15.40
2023-05-05T16:24:18.228Z,14.93
2023-05-05T16:29:19.701Z,15.06
2023-05-05T16:34:21.480Z,15.05
2023-05-05T16:39:22.924Z,15.13
2023-05-05T16:44:24.731Z,15.31
2023-05-05T16:49:26.247Z,15.42
2023-05-05T16:54:27.761Z,15.83
2023-05-05T16:59:31.395Z,15.42
2023-05-05T17:04:33.125Z,16.07
2023-05-05T17:09:34.741Z,15.89
2023-05-05T17:14:36.327Z,15.42
2023-05-05T17:19:37.757Z,15.94
2023-05-05T17:24:39.192Z,16.13
2023-05-05T17:29:41.345Z,16.41
2023-05-05T17:34:42.929Z,16.06
2023-05-05T17:39:44.456Z,15.76
2023-05-05T17:44:50.127Z,15.72
2023-05-05T17:49:53.845Z,16.16
2023-05-05T17:54:55.397Z,15.83
2023-05-05T17:59:56.834Z,15.84
2023-05-05T18:04:58.337Z,15.44
2023-05-05T18:09:59.856Z,15.54
2023-05-05T18:15:01.673Z,14.71
2023-05-05T18:20:04.206Z,14.60
2023-05-05T18:25:07.940Z,14.55
2023-05-05T18:30:18.541Z,14.45
2023-05-05T18:35:20.103Z,14.58
2023-05-05T18:40:22.164Z,14.67
2023-05-05T18:45:24.589Z,14.32
2023-05-05T18:50:26.224Z,14.09
2023-05-05T18:55:27.928Z,13.90
2023-05-05T19:00:29.534Z,13.82
2023-05-05T19:05:34.942Z,13.64
2023-05-05T19:10:36.965Z,13.50
2023-05-05T19:15:38.702Z,13.31
2023-05-05T19:20:43.027Z,13.22
2023-05-05T19:25:44.781Z,12.99
2023-05-05T19:30:48.812Z,12.92
2023-05-05T19:35:51.041Z,12.71
2023-05-05T19:40:54.107Z,12.69
2023-05-05T19:45:55.685Z,12.54
2023-05-05T19:50:57.573Z,12.62
2023-05-05T19:56:01.663Z,12.43
2023-05-05T20:01:03.186Z,12.41
2023-05-05T20:06:04.761Z,12.27
2023-05-05T20:11:09.082Z,12.05
2023-05-05T20:16:10.876Z,11.93
2023-05-05T20:21:12.494Z,11.95
2023-05-05T20:26:14.044Z,11.83
2023-05-05T20:31:15.614Z,11.97
2023-05-05T20:36:17.878Z,11.85
2023-05-05T20:41:19.293Z,11.88
2023-05-05T20:46:21.174Z,11.61
2023-05-05T20:51:22.699Z,11.36
2023-05-05T20:56:24.387Z,11.35
2023-05-05T21:01:26.184Z,11.27
2023-05-05T21:06:27.836Z,11.05
2023-05-05T21:11:29.489Z,10.80
2023-05-05T21:16:31.079Z,10.61
2023-05-05T21:21:32.570Z,10.75
2023-05-05T21:26:34.282Z,10.72
2023-05-05T21:31:35.796Z,10.55
2023-05-05T21:36:38.648Z,10.34
2023-05-05T21:41:40.158Z,10.41
2023-05-05T21:46:42.311Z,10.24
2023-05-05T21:51:45.099Z,10.17
2023-05-05T21:56:46.476Z,10.16
2023-05-05T22:01:51.151Z,10.14
2023-05-05T22:06:52.616Z,9.96
2023-05-05T22:11:54.166Z,9.98
2023-05-05T22:16:55.884Z,9.90
2023-05-05T22:21:58.652Z,9.82
2023-05-05T22:27:00.210Z,9.81
2023-05-05T22:32:01.772Z,9.65
2023-05-05T22:37:03.235Z,9.65
2023-05-05T22:42:04.760Z,9.58
2023-05-05T22:47:07.009Z,9.54
2023-05-05T22:52:08.652Z,9.49
2023-05-05T22:57:10.072Z,9.44
2023-05-05T23:02:11.663Z,9.33
2023-05-05T23:07:13.647Z,9.37
2023-05-05T23:12:15.093Z,9.36
2023-05-05T23:17:16.948Z,9.38
2023-05-05T23:22:18.692Z,9.17
2023-05-05T23:27:20.132Z,9.37
2023-05-05T23:32:21.887Z,9.51
2023-05-05T23:37:24.393Z,9.48
2023-05-05T23:42:26.128Z,9.41
2023-05-05T23:47:27.569Z,9.35
2023-05-05T23:52:29.312Z,9.21
2023-05-05T23:57:30.727Z,9.33
